sensor_id;sensor_type;location;lat;lon;timestamp;temperature;humidity
40340;DHT22;26044;50.864;20.658;2022-09-30T00:01:59;7.10;99.90
40340;DHT22;26044;50.864;20.658;2022-09-30T00:04:26;7.10;99.90
40340;DHT22;26044;50.864;20.658;2022-09-30T00:06:53;7.10;99.90
40340;DHT22;26044;50.864;20.658;2022-09-30T00:09:20;7.10;99.90
40340;DHT22;26044;50.864;20.658;2022-09-30T00:11:50;7.10;99.90
40340;DHT22;26044;50.864;20.658;2022-09-30T00:14:23;7.10;99.90
40340;DHT22;26044;50.864;20.658;2022-09-30T00:17:07;6.90;99.90
40340;DHT22;26044;50.864;20.658;2022-09-30T00:20:22;6.90;99.90
40340;DHT22;26044;50.864;20.658;2022-09-30T00:22:58;6.90;99.90
40340;DHT22;26044;50.864;20.658;2022-09-30T00:25:36;6.90;99.90
40340;DHT22;26044;50.864;20.658;2022-09-30T00:28:05;7.00;99.90
40340;DHT22;26044;50.864;20.658;2022-09-30T00:30:42;6.90;99.90
40340;DHT22;26044;50.864;20.658;2022-09-30T00:33:16;6.90;99.90
40340;DHT22;26044;50.864;20.658;2022-09-30T00:35:46;7.00;99.90
40340;DHT22;26044;50.864;20.658;2022-09-30T00:38:15;7.00;99.90
40340;DHT22;26044;50.864;20.658;2022-09-30T00:40:47;7.00;99.90
40340;DHT22;26044;50.864;20.658;2022-09-30T00:43:43;7.10;99.90
40340;DHT22;26044;50.864;20.658;2022-09-30T00:49:47;7.10;99.90
40340;DHT22;26044;50.864;20.658;2022-09-30T00:52:18;7.10;99.90
40340;DHT22;26044;50.864;20.658;2022-09-30T00:54:52;7.10;99.90
40340;DHT22;26044;50.864;20.658;2022-09-30T00:57:21;7.10;99.90
40340;DHT22;26044;50.864;20.658;2022-09-30T00:59:50;7.10;99.90
40340;DHT22;26044;50.864;20.658;2022-09-30T01:02:19;7.10;99.90
40340;DHT22;26044;50.864;20.658;2022-09-30T01:04:48;7.10;99.90
40340;DHT22;26044;50.864;20.658;2022-09-30T01:07:15;7.10;99.90
40340;DHT22;26044;50.864;20.658;2022-09-30T01:09:43;7.10;99.90
40340;DHT22;26044;50.864;20.658;2022-09-30T01:12:22;7.00;99.90
40340;DHT22;26044;50.864;20.658;2022-09-30T01:14:51;7.00;99.90
40340;DHT22;26044;50.864;20.658;2022-09-30T01:17:43;7.00;99.90
40340;DHT22;26044;50.864;20.658;2022-09-30T01:20:32;6.90;99.90
40340;DHT22;26044;50.864;20.658;2022-09-30T01:34:48;7.00;99.90
40340;DHT22;26044;50.864;20.658;2022-09-30T01:37:32;7.00;99.90
40340;DHT22;26044;50.864;20.658;2022-09-30T01:40:10;7.10;99.90
40340;DHT22;26044;50.864;20.658;2022-09-30T01:43:03;7.10;99.90
40340;DHT22;26044;50.864;20.658;2022-09-30T01:45:36;7.10;99.90
40340;DHT22;26044;50.864;20.658;2022-09-30T01:48:33;7.10;99.90
40340;DHT22;26044;50.864;20.658;2022-09-30T01:54:23;7.10;99.90
40340;DHT22;26044;50.864;20.658;2022-09-30T01:56:54;7.10;99.90
40340;DHT22;26044;50.864;20.658;2022-09-30T01:59:31;7.10;99.90
40340;DHT22;26044;50.864;20.658;2022-09-30T02:02:08;7.10;99.90
40340;DHT22;26044;50.864;20.658;2022-09-30T02:04:51;7.20;99.90
40340;DHT22;26044;50.864;20.658;2022-09-30T02:07:36;7.20;99.90
40340;DHT22;26044;50.864;20.658;2022-09-30T02:10:22;7.20;99.90
40340;DHT22;26044;50.864;20.658;2022-09-30T02:13:05;7.10;99.90
40340;DHT22;26044;50.864;20.658;2022-09-30T02:15:42;7.10;99.90
40340;DHT22;26044;50.864;20.658;2022-09-30T02:18:14;7.20;99.90
40340;DHT22;26044;50.864;20.658;2022-09-30T02:21:03;7.20;99.90
40340;DHT22;26044;50.864;20.658;2022-09-30T02:23:40;7.20;99.90
40340;DHT22;26044;50.864;20.658;2022-09-30T02:26:28;7.20;99.90
40340;DHT22;26044;50.864;20.658;2022-09-30T02:29:14;7.20;99.90
40340;DHT22;26044;50.864;20.658;2022-09-30T02:31:58;7.10;99.90
40340;DHT22;26044;50.864;20.658;2022-09-30T02:34:59;7.10;99.90
40340;DHT22;26044;50.864;20.658;2022-09-30T02:37:53;7.10;99.90
40340;DHT22;26044;50.864;20.658;2022-09-30T02:40:49;7.20;99.90
40340;DHT22;26044;50.864;20.658;2022-09-30T02:43:20;7.20;99.90
40340;DHT22;26044;50.864;20.658;2022-09-30T02:49:51;7.10;99.90
40340;DHT22;26044;50.864;20.658;2022-09-30T02:58:50;7.10;99.90
40340;DHT22;26044;50.864;20.658;2022-09-30T03:01:28;7.00;99.90
40340;DHT22;26044;50.864;20.658;2022-09-30T03:04:07;7.10;99.90
40340;DHT22;26044;50.864;20.658;2022-09-30T03:06:35;7.20;99.90
40340;DHT22;26044;50.864;20.658;2022-09-30T03:09:15;7.20;99.90
40340;DHT22;26044;50.864;20.658;2022-09-30T03:12:13;7.20;99.90
40340;DHT22;26044;50.864;20.658;2022-09-30T03:18:42;7.40;99.90
40340;DHT22;26044;50.864;20.658;2022-09-30T03:20:59;7.40;99.90
40340;DHT22;26044;50.864;20.658;2022-09-30T03:24:11;7.40;99.90
40340;DHT22;26044;50.864;20.658;2022-09-30T03:30:06;7.40;99.90
40340;DHT22;26044;50.864;20.658;2022-09-30T03:39:33;7.70;99.90
40340;DHT22;26044;50.864;20.658;2022-09-30T03:57:30;7.90;99.90
40340;DHT22;26044;50.864;20.658;2022-09-30T04:04:19;7.90;99.90
40340;DHT22;26044;50.864;20.658;2022-09-30T04:06:48;7.90;99.90
40340;DHT22;26044;50.864;20.658;2022-09-30T04:09:57;7.90;99.90
40340;DHT22;26044;50.864;20.658;2022-09-30T04:12:32;7.90;99.90
40340;DHT22;26044;50.864;20.658;2022-09-30T04:15:25;7.90;99.90
40340;DHT22;26044;50.864;20.658;2022-09-30T04:18:22;8.00;99.90
40340;DHT22;26044;50.864;20.658;2022-09-30T04:21:04;8.00;99.90
40340;DHT22;26044;50.864;20.658;2022-09-30T04:23:34;8.10;99.90
40340;DHT22;26044;50.864;20.658;2022-09-30T04:26:14;8.10;99.90
40340;DHT22;26044;50.864;20.658;2022-09-30T04:29:04;8.20;99.90
40340;DHT22;26044;50.864;20.658;2022-09-30T04:31:31;8.20;99.90
40340;DHT22;26044;50.864;20.658;2022-09-30T04:33:58;8.10;99.90
40340;DHT22;26044;50.864;20.658;2022-09-30T04:36:26;8.10;99.90
40340;DHT22;26044;50.864;20.658;2022-09-30T04:38:53;8.10;99.90
40340;DHT22;26044;50.864;20.658;2022-09-30T04:41:21;8.10;99.90
40340;DHT22;26044;50.864;20.658;2022-09-30T04:43:48;8.10;99.90
40340;DHT22;26044;50.864;20.658;2022-09-30T04:46:17;8.10;99.90
40340;DHT22;26044;50.864;20.658;2022-09-30T04:48:46;8.10;99.90
40340;DHT22;26044;50.864;20.658;2022-09-30T04:51:22;8.20;99.90
40340;DHT22;26044;50.864;20.658;2022-09-30T04:53:49;8.20;99.90
40340;DHT22;26044;50.864;20.658;2022-09-30T04:56:16;8.30;99.90
40340;DHT22;26044;50.864;20.658;2022-09-30T04:58:43;8.30;99.90
40340;DHT22;26044;50.864;20.658;2022-09-30T05:01:13;8.30;99.90
40340;DHT22;26044;50.864;20.658;2022-09-30T05:03:40;8.30;99.90
40340;DHT22;26044;50.864;20.658;2022-09-30T05:06:08;8.40;99.90
40340;DHT22;26044;50.864;20.658;2022-09-30T05:08:35;8.40;99.90
40340;DHT22;26044;50.864;20.658;2022-09-30T05:11:14;8.40;99.90
40340;DHT22;26044;50.864;20.658;2022-09-30T05:13:45;8.40;99.90
40340;DHT22;26044;50.864;20.658;2022-09-30T05:16:13;8.50;99.90
40340;DHT22;26044;50.864;20.658;2022-09-30T05:18:42;8.50;99.90
40340;DHT22;26044;50.864;20.658;2022-09-30T05:21:17;8.50;99.90
40340;DHT22;26044;50.864;20.658;2022-09-30T05:23:46;8.50;99.90
40340;DHT22;26044;50.864;20.658;2022-09-30T05:26:14;8.60;99.90
40340;DHT22;26044;50.864;20.658;2022-09-30T05:28:41;8.60;99.90
40340;DHT22;26044;50.864;20.658;2022-09-30T05:31:10;8.60;99.90
40340;DHT22;26044;50.864;20.658;2022-09-30T05:33:40;8.60;99.90
40340;DHT22;26044;50.864;20.658;2022-09-30T05:36:11;8.60;99.90
40340;DHT22;26044;50.864;20.658;2022-09-30T05:38:39;8.60;99.90
40340;DHT22;26044;50.864;20.658;2022-09-30T05:41:10;8.60;99.90
40340;DHT22;26044;50.864;20.658;2022-09-30T05:43:39;8.60;99.90
40340;DHT22;26044;50.864;20.658;2022-09-30T05:46:17;8.60;99.90
40340;DHT22;26044;50.864;20.658;2022-09-30T05:48:45;8.60;99.90
40340;DHT22;26044;50.864;20.658;2022-09-30T05:51:16;8.50;99.90
40340;DHT22;26044;50.864;20.658;2022-09-30T05:53:43;8.60;99.90
40340;DHT22;26044;50.864;20.658;2022-09-30T05:56:11;8.70;99.90
40340;DHT22;26044;50.864;20.658;2022-09-30T05:59:02;8.70;99.90
40340;DHT22;26044;50.864;20.658;2022-09-30T06:01:28;8.70;99.90
40340;DHT22;26044;50.864;20.658;2022-09-30T06:03:55;8.70;99.90
40340;DHT22;26044;50.864;20.658;2022-09-30T06:06:25;8.80;99.90
40340;DHT22;26044;50.864;20.658;2022-09-30T06:08:52;8.80;99.90
40340;DHT22;26044;50.864;20.658;2022-09-30T06:11:38;8.80;99.90
40340;DHT22;26044;50.864;20.658;2022-09-30T06:14:06;8.80;99.90
40340;DHT22;26044;50.864;20.658;2022-09-30T06:16:34;8.90;99.90
40340;DHT22;26044;50.864;20.658;2022-09-30T06:19:05;8.80;99.90
40340;DHT22;26044;50.864;20.658;2022-09-30T06:21:47;9.00;99.90
40340;DHT22;26044;50.864;20.658;2022-09-30T06:24:46;9.00;99.90
40340;DHT22;26044;50.864;20.658;2022-09-30T06:27:19;9.00;99.90
40340;DHT22;26044;50.864;20.658;2022-09-30T06:30:21;9.00;99.90
40340;DHT22;26044;50.864;20.658;2022-09-30T06:32:48;9.10;99.90
40340;DHT22;26044;50.864;20.658;2022-09-30T06:35:15;9.10;99.90
40340;DHT22;26044;50.864;20.658;2022-09-30T06:37:56;9.20;99.90
40340;DHT22;26044;50.864;20.658;2022-09-30T06:40:23;9.20;99.90
40340;DHT22;26044;50.864;20.658;2022-09-30T06:43:03;9.30;99.90
40340;DHT22;26044;50.864;20.658;2022-09-30T06:45:30;9.20;99.90
40340;DHT22;26044;50.864;20.658;2022-09-30T06:48:02;9.40;99.90
40340;DHT22;26044;50.864;20.658;2022-09-30T06:50:56;9.40;99.90
40340;DHT22;26044;50.864;20.658;2022-09-30T06:53:27;9.40;99.90
40340;DHT22;26044;50.864;20.658;2022-09-30T06:56:26;9.50;99.90
40340;DHT22;26044;50.864;20.658;2022-09-30T06:58:53;9.50;99.90
40340;DHT22;26044;50.864;20.658;2022-09-30T07:01:24;9.50;99.90
40340;DHT22;26044;50.864;20.658;2022-09-30T07:03:55;9.60;99.90
40340;DHT22;26044;50.864;20.658;2022-09-30T07:06:24;9.70;99.90
40340;DHT22;26044;50.864;20.658;2022-09-30T07:09:23;9.70;99.90
40340;DHT22;26044;50.864;20.658;2022-09-30T07:11:50;9.70;99.90
40340;DHT22;26044;50.864;20.658;2022-09-30T07:14:20;9.80;99.90
40340;DHT22;26044;50.864;20.658;2022-09-30T07:16:50;9.80;99.90
40340;DHT22;26044;50.864;20.658;2022-09-30T07:19:21;9.90;99.90
40340;DHT22;26044;50.864;20.658;2022-09-30T07:22:12;9.90;99.90
40340;DHT22;26044;50.864;20.658;2022-09-30T07:25:01;10.00;99.90
40340;DHT22;26044;50.864;20.658;2022-09-30T07:27:58;10.00;99.90
40340;DHT22;26044;50.864;20.658;2022-09-30T07:30:25;10.10;99.90
40340;DHT22;26044;50.864;20.658;2022-09-30T07:32:53;10.10;99.90
40340;DHT22;26044;50.864;20.658;2022-09-30T07:35:49;10.10;99.90
40340;DHT22;26044;50.864;20.658;2022-09-30T07:38:18;10.20;99.90
40340;DHT22;26044;50.864;20.658;2022-09-30T07:43:55;10.20;99.90
40340;DHT22;26044;50.864;20.658;2022-09-30T07:46:28;10.30;99.90
40340;DHT22;26044;50.864;20.658;2022-09-30T07:49:01;10.20;99.90
40340;DHT22;26044;50.864;20.658;2022-09-30T07:51:36;10.30;99.90
40340;DHT22;26044;50.864;20.658;2022-09-30T07:54:31;10.30;99.90
40340;DHT22;26044;50.864;20.658;2022-09-30T07:57:05;10.30;99.90
40340;DHT22;26044;50.864;20.658;2022-09-30T08:00:13;10.30;99.90
40340;DHT22;26044;50.864;20.658;2022-09-30T08:03:01;10.40;99.90
40340;DHT22;26044;50.864;20.658;2022-09-30T08:05:31;10.30;99.90
40340;DHT22;26044;50.864;20.658;2022-09-30T08:07:59;10.30;99.90
40340;DHT22;26044;50.864;20.658;2022-09-30T08:10:26;10.30;99.90
40340;DHT22;26044;50.864;20.658;2022-09-30T08:13:15;10.30;99.90
40340;DHT22;26044;50.864;20.658;2022-09-30T08:15:43;10.30;99.90
40340;DHT22;26044;50.864;20.658;2022-09-30T08:18:10;10.30;99.90
40340;DHT22;26044;50.864;20.658;2022-09-30T08:20:37;10.30;99.90
40340;DHT22;26044;50.864;20.658;2022-09-30T08:23:04;10.40;99.90
40340;DHT22;26044;50.864;20.658;2022-09-30T08:28:38;10.30;99.90
40340;DHT22;26044;50.864;20.658;2022-09-30T08:31:13;10.30;99.90
40340;DHT22;26044;50.864;20.658;2022-09-30T08:33:41;10.40;99.90
40340;DHT22;26044;50.864;20.658;2022-09-30T08:36:13;10.40;99.90
40340;DHT22;26044;50.864;20.658;2022-09-30T08:39:09;10.40;99.90
40340;DHT22;26044;50.864;20.658;2022-09-30T08:48:01;10.50;99.90
40340;DHT22;26044;50.864;20.658;2022-09-30T08:50:32;10.50;99.90
40340;DHT22;26044;50.864;20.658;2022-09-30T08:53:07;10.40;99.90
40340;DHT22;26044;50.864;20.658;2022-09-30T08:55:41;10.40;99.90
40340;DHT22;26044;50.864;20.658;2022-09-30T08:58:35;10.40;99.90
40340;DHT22;26044;50.864;20.658;2022-09-30T09:01:29;10.40;99.90
40340;DHT22;26044;50.864;20.658;2022-09-30T09:04:31;10.40;99.90
40340;DHT22;26044;50.864;20.658;2022-09-30T09:07:13;10.40;99.90
40340;DHT22;26044;50.864;20.658;2022-09-30T09:10:10;10.40;99.90
40340;DHT22;26044;50.864;20.658;2022-09-30T09:15:36;10.40;99.90
40340;DHT22;26044;50.864;20.658;2022-09-30T09:18:39;10.40;99.90
40340;DHT22;26044;50.864;20.658;2022-09-30T09:24:25;10.40;99.90
40340;DHT22;26044;50.864;20.658;2022-09-30T09:26:54;10.40;99.90
40340;DHT22;26044;50.864;20.658;2022-09-30T09:32:38;10.40;99.90
40340;DHT22;26044;50.864;20.658;2022-09-30T09:35:16;10.50;99.90
40340;DHT22;26044;50.864;20.658;2022-09-30T09:37:58;10.40;99.90
40340;DHT22;26044;50.864;20.658;2022-09-30T09:40:49;10.50;99.90
40340;DHT22;26044;50.864;20.658;2022-09-30T09:46:22;10.50;99.90
40340;DHT22;26044;50.864;20.658;2022-09-30T09:55:20;10.50;99.90
40340;DHT22;26044;50.864;20.658;2022-09-30T09:57:48;10.50;99.90
40340;DHT22;26044;50.864;20.658;2022-09-30T10:00:29;10.50;99.90
40340;DHT22;26044;50.864;20.658;2022-09-30T10:03:20;10.50;99.90
40340;DHT22;26044;50.864;20.658;2022-09-30T10:06:08;10.50;99.90
40340;DHT22;26044;50.864;20.658;2022-09-30T10:17:39;10.40;99.90
40340;DHT22;26044;50.864;20.658;2022-09-30T10:20:18;10.50;99.90
40340;DHT22;26044;50.864;20.658;2022-09-30T10:22:47;10.50;99.90
40340;DHT22;26044;50.864;20.658;2022-09-30T10:25:20;10.50;99.90
40340;DHT22;26044;50.864;20.658;2022-09-30T10:31:33;10.40;99.90
40340;DHT22;26044;50.864;20.658;2022-09-30T10:37:23;10.40;99.90
40340;DHT22;26044;50.864;20.658;2022-09-30T10:39:57;10.30;99.90
40340;DHT22;26044;50.864;20.658;2022-09-30T10:42:29;10.40;99.90
40340;DHT22;26044;50.864;20.658;2022-09-30T10:45:15;10.40;99.90
40340;DHT22;26044;50.864;20.658;2022-09-30T10:48:15;10.40;99.90
40340;DHT22;26044;50.864;20.658;2022-09-30T10:50:50;10.40;99.90
40340;DHT22;26044;50.864;20.658;2022-09-30T10:56:41;10.40;99.90
40340;DHT22;26044;50.864;20.658;2022-09-30T11:09:08;10.40;99.90
40340;DHT22;26044;50.864;20.658;2022-09-30T11:11:53;10.40;99.90
40340;DHT22;26044;50.864;20.658;2022-09-30T11:14:32;10.40;99.90
40340;DHT22;26044;50.864;20.658;2022-09-30T11:17:26;10.40;99.90
40340;DHT22;26044;50.864;20.658;2022-09-30T11:20:18;10.40;99.90
40340;DHT22;26044;50.864;20.658;2022-09-30T11:22:59;10.40;99.90
40340;DHT22;26044;50.864;20.658;2022-09-30T11:43:55;10.30;99.90
40340;DHT22;26044;50.864;20.658;2022-09-30T11:50:32;10.30;99.90
40340;DHT22;26044;50.864;20.658;2022-09-30T12:01:26;10.30;99.90
40340;DHT22;26044;50.864;20.658;2022-09-30T12:04:02;10.30;99.90
40340;DHT22;26044;50.864;20.658;2022-09-30T12:13:08;10.20;99.90
40340;DHT22;26044;50.864;20.658;2022-09-30T12:15:40;10.20;99.90
40340;DHT22;26044;50.864;20.658;2022-09-30T12:18:12;10.20;99.90
40340;DHT22;26044;50.864;20.658;2022-09-30T12:20:50;10.20;99.90
40340;DHT22;26044;50.864;20.658;2022-09-30T12:27:00;10.20;99.90
40340;DHT22;26044;50.864;20.658;2022-09-30T12:42:18;10.30;99.90
40340;DHT22;26044;50.864;20.658;2022-09-30T12:50:19;10.30;99.90
40340;DHT22;26044;50.864;20.658;2022-09-30T12:52:47;10.40;99.90
40340;DHT22;26044;50.864;20.658;2022-09-30T12:58:31;10.40;99.90
40340;DHT22;26044;50.864;20.658;2022-09-30T13:01:04;10.40;99.90
40340;DHT22;26044;50.864;20.658;2022-09-30T13:03:51;10.40;99.90
40340;DHT22;26044;50.864;20.658;2022-09-30T13:06:20;10.40;99.90
40340;DHT22;26044;50.864;20.658;2022-09-30T13:09:06;10.30;99.90
40340;DHT22;26044;50.864;20.658;2022-09-30T13:11:36;10.40;99.90
40340;DHT22;26044;50.864;20.658;2022-09-30T13:19:44;10.40;99.90
40340;DHT22;26044;50.864;20.658;2022-09-30T13:31:12;10.40;99.90
40340;DHT22;26044;50.864;20.658;2022-09-30T13:33:46;10.50;99.90
40340;DHT22;26044;50.864;20.658;2022-09-30T13:36:24;10.50;99.90
40340;DHT22;26044;50.864;20.658;2022-09-30T13:39:53;10.40;99.90
40340;DHT22;26044;50.864;20.658;2022-09-30T13:45:03;10.40;99.90
40340;DHT22;26044;50.864;20.658;2022-09-30T13:48:12;10.50;99.90
40340;DHT22;26044;50.864;20.658;2022-09-30T13:51:02;10.50;99.90
40340;DHT22;26044;50.864;20.658;2022-09-30T13:57:06;10.50;99.90
40340;DHT22;26044;50.864;20.658;2022-09-30T14:09:09;10.50;99.90
40340;DHT22;26044;50.864;20.658;2022-09-30T14:15:40;10.50;99.90
40340;DHT22;26044;50.864;20.658;2022-09-30T14:21:56;10.50;99.90
40340;DHT22;26044;50.864;20.658;2022-09-30T14:28:28;10.50;99.90
40340;DHT22;26044;50.864;20.658;2022-09-30T14:31:01;10.50;99.90
40340;DHT22;26044;50.864;20.658;2022-09-30T14:33:42;10.50;99.90
40340;DHT22;26044;50.864;20.658;2022-09-30T14:36:30;10.50;99.90
40340;DHT22;26044;50.864;20.658;2022-09-30T14:39:18;10.50;99.90
40340;DHT22;26044;50.864;20.658;2022-09-30T14:41:54;10.50;99.90
40340;DHT22;26044;50.864;20.658;2022-09-30T14:48:06;10.50;99.90
40340;DHT22;26044;50.864;20.658;2022-09-30T14:54:26;10.50;99.90
40340;DHT22;26044;50.864;20.658;2022-09-30T15:00:48;10.50;99.90
40340;DHT22;26044;50.864;20.658;2022-09-30T15:06:56;10.40;99.90
40340;DHT22;26044;50.864;20.658;2022-09-30T15:12:51;10.50;99.90
40340;DHT22;26044;50.864;20.658;2022-09-30T15:18:55;10.50;99.90
40340;DHT22;26044;50.864;20.658;2022-09-30T15:21:53;10.60;99.90
40340;DHT22;26044;50.864;20.658;2022-09-30T15:24:25;10.50;99.90
40340;DHT22;26044;50.864;20.658;2022-09-30T15:27:12;10.50;99.90
40340;DHT22;26044;50.864;20.658;2022-09-30T15:33:12;10.50;99.90
40340;DHT22;26044;50.864;20.658;2022-09-30T15:39:29;10.60;99.90
40340;DHT22;26044;50.864;20.658;2022-09-30T15:42:38;10.60;99.90
40340;DHT22;26044;50.864;20.658;2022-09-30T15:45:35;10.60;99.90
40340;DHT22;26044;50.864;20.658;2022-09-30T15:52:18;10.50;99.90
40340;DHT22;26044;50.864;20.658;2022-09-30T16:04:50;10.50;99.90
40340;DHT22;26044;50.864;20.658;2022-09-30T16:10:54;10.50;99.90
40340;DHT22;26044;50.864;20.658;2022-09-30T16:17:29;10.50;99.90
40340;DHT22;26044;50.864;20.658;2022-09-30T16:25:30;10.50;99.90
40340;DHT22;26044;50.864;20.658;2022-09-30T16:28:13;10.50;99.90
40340;DHT22;26044;50.864;20.658;2022-09-30T16:30:50;10.50;99.90
40340;DHT22;26044;50.864;20.658;2022-09-30T16:37:03;10.40;99.90
40340;DHT22;26044;50.864;20.658;2022-09-30T16:43:16;10.40;99.90
40340;DHT22;26044;50.864;20.658;2022-09-30T16:49:24;10.40;99.90
40340;DHT22;26044;50.864;20.658;2022-09-30T16:55:13;10.40;99.90
40340;DHT22;26044;50.864;20.658;2022-09-30T16:57:54;10.40;99.90
40340;DHT22;26044;50.864;20.658;2022-09-30T17:00:25;10.40;99.90
40340;DHT22;26044;50.864;20.658;2022-09-30T17:02:59;10.40;99.90
40340;DHT22;26044;50.864;20.658;2022-09-30T17:09:16;10.40;99.90
40340;DHT22;26044;50.864;20.658;2022-09-30T17:15:31;10.50;99.90
40340;DHT22;26044;50.864;20.658;2022-09-30T17:21:43;10.50;99.90
40340;DHT22;26044;50.864;20.658;2022-09-30T17:27:57;10.50;99.90
40340;DHT22;26044;50.864;20.658;2022-09-30T17:34:14;10.50;99.90
40340;DHT22;26044;50.864;20.658;2022-09-30T17:40:30;10.50;99.90
40340;DHT22;26044;50.864;20.658;2022-09-30T17:53:17;10.50;99.90
40340;DHT22;26044;50.864;20.658;2022-09-30T17:59:49;10.40;99.90
40340;DHT22;26044;50.864;20.658;2022-09-30T18:05:59;10.50;99.90
40340;DHT22;26044;50.864;20.658;2022-09-30T18:08:32;10.40;99.90
40340;DHT22;26044;50.864;20.658;2022-09-30T18:11:06;10.40;99.90
40340;DHT22;26044;50.864;20.658;2022-09-30T18:13:56;10.40;99.90
40340;DHT22;26044;50.864;20.658;2022-09-30T18:17:05;10.40;99.90
40340;DHT22;26044;50.864;20.658;2022-09-30T18:19:43;10.40;99.90
40340;DHT22;26044;50.864;20.658;2022-09-30T18:26:22;10.40;99.90
40340;DHT22;26044;50.864;20.658;2022-09-30T18:32:23;10.40;99.90
40340;DHT22;26044;50.864;20.658;2022-09-30T18:38:55;10.40;99.90
40340;DHT22;26044;50.864;20.658;2022-09-30T18:44:52;10.40;99.90
40340;DHT22;26044;50.864;20.658;2022-09-30T18:51:00;10.40;99.90
40340;DHT22;26044;50.864;20.658;2022-09-30T19:11:12;10.50;99.90
40340;DHT22;26044;50.864;20.658;2022-09-30T19:17:19;10.50;99.90
40340;DHT22;26044;50.864;20.658;2022-09-30T19:20:09;10.50;99.90
40340;DHT22;26044;50.864;20.658;2022-09-30T19:22:51;10.50;99.90
40340;DHT22;26044;50.864;20.658;2022-09-30T19:25:46;10.50;99.90
40340;DHT22;26044;50.864;20.658;2022-09-30T19:28:48;10.50;99.90
40340;DHT22;26044;50.864;20.658;2022-09-30T19:32:00;10.60;99.90
40340;DHT22;26044;50.864;20.658;2022-09-30T19:34:33;10.50;99.90
40340;DHT22;26044;50.864;20.658;2022-09-30T19:37:56;10.50;99.90
40340;DHT22;26044;50.864;20.658;2022-09-30T19:40:59;10.50;99.90
40340;DHT22;26044;50.864;20.658;2022-09-30T19:44:33;10.50;99.90
40340;DHT22;26044;50.864;20.658;2022-09-30T19:47:37;10.60;99.90
40340;DHT22;26044;50.864;20.658;2022-09-30T19:50:48;10.60;99.90
40340;DHT22;26044;50.864;20.658;2022-09-30T19:58:01;10.50;99.90
40340;DHT22;26044;50.864;20.658;2022-09-30T20:00:34;10.60;99.90
40340;DHT22;26044;50.864;20.658;2022-09-30T20:03:28;10.60;99.90
40340;DHT22;26044;50.864;20.658;2022-09-30T20:06:20;10.60;99.90
40340;DHT22;26044;50.864;20.658;2022-09-30T20:09:14;10.50;99.90
40340;DHT22;26044;50.864;20.658;2022-09-30T20:15:05;10.50;99.90
40340;DHT22;26044;50.864;20.658;2022-09-30T20:28:41;10.60;99.90
40340;DHT22;26044;50.864;20.658;2022-09-30T20:31:44;10.50;99.90
40340;DHT22;26044;50.864;20.658;2022-09-30T20:34:21;10.50;99.90
40340;DHT22;26044;50.864;20.658;2022-09-30T20:40:31;10.50;99.90
40340;DHT22;26044;50.864;20.658;2022-09-30T20:46:34;10.50;99.90
40340;DHT22;26044;50.864;20.658;2022-09-30T20:52:47;10.50;99.90
40340;DHT22;26044;50.864;20.658;2022-09-30T20:58:44;10.50;99.90
40340;DHT22;26044;50.864;20.658;2022-09-30T21:01:32;10.50;99.90
40340;DHT22;26044;50.864;20.658;2022-09-30T21:04:00;10.50;99.90
40340;DHT22;26044;50.864;20.658;2022-09-30T21:06:37;10.50;99.90
40340;DHT22;26044;50.864;20.658;2022-09-30T21:12:36;10.50;99.90
40340;DHT22;26044;50.864;20.658;2022-09-30T21:18:33;10.50;99.90
40340;DHT22;26044;50.864;20.658;2022-09-30T21:24:46;10.60;99.90
40340;DHT22;26044;50.864;20.658;2022-09-30T21:27:17;10.60;99.90
40340;DHT22;26044;50.864;20.658;2022-09-30T21:29:45;10.60;99.90
40340;DHT22;26044;50.864;20.658;2022-09-30T21:32:17;10.60;99.90
40340;DHT22;26044;50.864;20.658;2022-09-30T21:38:35;10.70;99.90
40340;DHT22;26044;50.864;20.658;2022-09-30T21:44:49;10.70;99.90
40340;DHT22;26044;50.864;20.658;2022-09-30T21:51:11;10.60;99.90
40340;DHT22;26044;50.864;20.658;2022-09-30T21:57:09;10.60;99.90
40340;DHT22;26044;50.864;20.658;2022-09-30T22:03:30;10.60;99.90
40340;DHT22;26044;50.864;20.658;2022-09-30T22:09:49;10.60;99.90
40340;DHT22;26044;50.864;20.658;2022-09-30T22:16:06;10.60;99.90
40340;DHT22;26044;50.864;20.658;2022-09-30T22:22:29;10.50;99.90
40340;DHT22;26044;50.864;20.658;2022-09-30T22:25:00;10.60;99.90
40340;DHT22;26044;50.864;20.658;2022-09-30T22:27:27;10.60;99.90
40340;DHT22;26044;50.864;20.658;2022-09-30T22:29:59;10.60;99.90
40340;DHT22;26044;50.864;20.658;2022-09-30T22:32:29;10.60;99.90
40340;DHT22;26044;50.864;20.658;2022-09-30T22:35:09;10.50;99.90
40340;DHT22;26044;50.864;20.658;2022-09-30T22:37:57;10.60;99.90
40340;DHT22;26044;50.864;20.658;2022-09-30T22:40:47;10.50;99.90
40340;DHT22;26044;50.864;20.658;2022-09-30T22:43:25;10.60;99.90
40340;DHT22;26044;50.864;20.658;2022-09-30T22:46:07;10.60;99.90
40340;DHT22;26044;50.864;20.658;2022-09-30T22:48:35;10.60;99.90
40340;DHT22;26044;50.864;20.658;2022-09-30T22:51:13;10.50;99.90
40340;DHT22;26044;50.864;20.658;2022-09-30T22:53:51;10.50;99.90
40340;DHT22;26044;50.864;20.658;2022-09-30T22:56:21;10.60;99.90
40340;DHT22;26044;50.864;20.658;2022-09-30T22:58:51;10.50;99.90
40340;DHT22;26044;50.864;20.658;2022-09-30T23:01:23;10.50;99.90
40340;DHT22;26044;50.864;20.658;2022-09-30T23:03:52;10.50;99.90
40340;DHT22;26044;50.864;20.658;2022-09-30T23:06:25;10.50;99.90
40340;DHT22;26044;50.864;20.658;2022-09-30T23:08:55;10.50;99.90
40340;DHT22;26044;50.864;20.658;2022-09-30T23:11:30;10.50;99.90
40340;DHT22;26044;50.864;20.658;2022-09-30T23:14:06;10.50;99.90
40340;DHT22;26044;50.864;20.658;2022-09-30T23:16:40;10.50;99.90
40340;DHT22;26044;50.864;20.658;2022-09-30T23:19:15;10.50;99.90
40340;DHT22;26044;50.864;20.658;2022-09-30T23:21:46;10.50;99.90
40340;DHT22;26044;50.864;20.658;2022-09-30T23:24:14;10.50;99.90
40340;DHT22;26044;50.864;20.658;2022-09-30T23:26:49;10.50;99.90
40340;DHT22;26044;50.864;20.658;2022-09-30T23:29:23;10.40;99.90
40340;DHT22;26044;50.864;20.658;2022-09-30T23:31:55;10.50;99.90
40340;DHT22;26044;50.864;20.658;2022-09-30T23:34:31;10.50;99.90
40340;DHT22;26044;50.864;20.658;2022-09-30T23:39:33;10.50;99.90
40340;DHT22;26044;50.864;20.658;2022-09-30T23:42:02;10.50;99.90
40340;DHT22;26044;50.864;20.658;2022-09-30T23:44:29;10.40;99.90
40340;DHT22;26044;50.864;20.658;2022-09-30T23:47:07;10.50;99.90
40340;DHT22;26044;50.864;20.658;2022-09-30T23:49:54;10.40;99.90
40340;DHT22;26044;50.864;20.658;2022-09-30T23:52:22;10.50;99.90
40340;DHT22;26044;50.864;20.658;2022-09-30T23:54:53;10.50;99.90
40340;DHT22;26044;50.864;20.658;2022-09-30T23:57:22;10.50;99.90
40340;DHT22;26044;50.864;20.658;2022-09-30T23:59:52;10.50;99.90
